Time;durP1;ratioP1;P1;durP2;ratioP2;P2;SDS_P1;SDS_P2;PMS_P1;PMS_P2;Temp;Humidity;BMP_temperature;BMP_pressure;BME280_temperature;BME280_humidity;BME280_pressure;Samples;Min_cycle;Max_cycle;Signal;HPM_P1;HPM_P2
2022/12/04 00:00:36;;;;;;;0.50;0.10;;;3.20;1.00;;;;;;6046908;23;20476;-79
2022/12/04 00:03:04;;;;;;;0.50;0.10;;;3.30;1.00;;;;;;6047511;23;20417;-79
2022/12/04 00:05:32;;;;;;;3.97;3.70;;;3.30;1.00;;;;;;6047833;23;20396;-79
2022/12/04 00:08:00;;;;;;;0.60;0.30;;;3.30;1.00;;;;;;6046950;23;20420;-79
2022/12/04 00:10:28;;;;;;;2.80;2.37;;;3.40;1.00;;;;;;6045893;23;20906;-79
2022/12/04 00:12:57;;;;;;;0.60;0.43;;;3.40;1.00;;;;;;6047415;23;20412;-79
2022/12/04 00:15:26;;;;;;;1.50;1.40;;;;;;;;;;6048602;23;20440;-79
2022/12/04 00:17:54;;;;;;;0.60;0.40;;;3.30;1.00;;;;;;6048166;23;20754;-77
2022/12/04 00:20:23;;;;;;;29.97;27.27;;;3.30;1.00;;;;;;6048228;23;20905;-79
2022/12/04 00:22:51;;;;;;;4.00;3.33;;;3.30;1.00;;;;;;6047276;23;20409;-79
2022/12/04 00:25:19;;;;;;;0.50;0.10;;;3.30;1.00;;;;;;6045753;23;20493;-79
2022/12/04 00:27:47;;;;;;;0.50;0.20;;;3.30;1.00;;;;;;6045509;23;20934;-78
2022/12/04 00:30:16;;;;;;;1.13;1.03;;;3.30;1.00;;;;;;6046269;23;20480;-78
2022/12/04 00:32:44;;;;;;;1.00;0.87;;;3.40;1.00;;;;;;6047333;23;20465;-78
2022/12/04 00:35:12;;;;;;;0.50;0.10;;;3.40;1.00;;;;;;6047329;23;20404;-78
2022/12/04 00:37:40;;;;;;;0.50;0.20;;;3.40;1.00;;;;;;6058440;23;20423;-78
2022/12/04 00:40:09;;;;;;;0.50;0.20;;;3.40;1.00;;;;;;6066605;23;20497;-79
2022/12/04 00:42:37;;;;;;;0.50;0.10;;;3.40;1.00;;;;;;6059957;23;20421;-79
2022/12/04 00:45:06;;;;;;;0.90;0.30;;;3.50;1.00;;;;;;6049808;23;20424;-78
2022/12/04 00:47:35;;;;;;;0.50;0.10;;;3.50;1.00;;;;;;6047470;23;20517;-79
2022/12/04 00:50:04;;;;;;;1.17;0.97;;;3.50;1.00;;;;;;6047387;23;20420;-79
2022/12/04 00:52:32;;;;;;;1.80;1.70;;;3.60;1.00;;;;;;6046109;23;20416;-78
2022/12/04 00:54:59;;;;;;;1.33;1.23;;;3.60;1.00;;;;;;6045423;23;20421;-78
2022/12/04 00:57:27;;;;;;;8.27;7.90;;;3.50;1.00;;;;;;6047653;23;20452;-78
2022/12/04 00:59:55;;;;;;;0.50;0.20;;;3.50;1.00;;;;;;6044844;23;20428;-78
2022/12/04 05:02:58;;;;;;;0.50;0.10;;;;;;;;;;6011428;23;20433;-75
2022/12/04 05:05:26;;;;;;;0.60;0.33;;;3.10;1.00;;;;;;6013188;23;20488;-74
2022/12/04 05:07:53;;;;;;;0.67;0.27;;;3.10;1.00;;;;;;6012750;23;20716;-75
2022/12/04 05:10:21;;;;;;;0.67;0.47;;;3.10;1.00;;;;;;6012896;23;20409;-75
2022/12/04 05:12:50;;;;;;;0.50;0.10;;;3.10;1.00;;;;;;5983343;23;20424;-75
2022/12/04 05:15:18;;;;;;;35.50;10.73;;;3.10;1.00;;;;;;5983037;24;20427;-76
2022/12/04 05:17:46;;;;;;;2.87;2.60;;;;;;;;;;6062159;23;20452;-79
2022/12/04 05:20:15;;;;;;;0.90;0.77;;;;;;;;;;6075873;23;20447;-80
2022/12/04 05:22:43;;;;;;;0.60;0.37;;;;;;;;;;6078543;23;20396;-80
2022/12/04 05:25:11;;;;;;;0.77;0.60;;;3.10;1.00;;;;;;6076139;23;20919;-80
2022/12/04 05:27:39;;;;;;;3.23;1.70;;;3.10;1.00;;;;;;6075979;23;20435;-78
2022/12/04 05:30:08;;;;;;;2.00;0.93;;;3.10;1.00;;;;;;6077406;23;20423;-80
2022/12/04 05:32:36;;;;;;;0.80;0.67;;;3.00;1.00;;;;;;6076402;23;20416;-80
2022/12/04 05:35:04;;;;;;;0.50;0.20;;;3.00;1.00;;;;;;6077853;23;20415;-79
2022/12/04 05:37:40;;;;;;;2.67;2.47;;;3.00;1.00;;;;;;6078118;23;20552;-79
2022/12/04 05:40:08;;;;;;;1.20;0.47;;;2.90;1.00;;;;;;6078867;23;20419;-79
2022/12/04 05:42:37;;;;;;;0.50;0.20;;;2.90;1.00;;;;;;6077867;23;20404;-79
2022/12/04 05:45:06;;;;;;;2.90;0.90;;;2.90;1.00;;;;;;6078941;23;20412;-79
2022/12/04 05:47:38;;;;;;;0.90;0.63;;;2.80;1.00;;;;;;6078448;23;20488;-79
2022/12/04 05:50:07;;;;;;;0.60;0.30;;;2.80;1.00;;;;;;6082268;23;20400;-79
2022/12/04 05:52:36;;;;;;;0.50;0.10;;;2.80;1.00;;;;;;6092909;23;20455;-79
2022/12/04 05:55:07;;;;;;;2.87;2.77;;;2.70;1.00;;;;;;6092406;23;20448;-79
2022/12/04 05:57:34;;;;;;;2.83;0.50;;;2.70;1.00;;;;;;6082604;23;20457;-79
2022/12/04 06:00:02;;;;;;;3.00;1.50;;;2.70;1.00;;;;;;6077641;23;20427;-79
2022/12/04 06:02:30;;;;;;;0.60;0.40;;;2.70;1.00;;;;;;6077281;23;20410;-79
2022/12/04 06:04:58;;;;;;;0.50;0.20;;;2.70;1.00;;;;;;6074304;23;20419;-79
2022/12/04 06:07:26;;;;;;;0.50;0.27;;;2.70;1.00;;;;;;6075011;23;20763;-79
2022/12/04 06:09:55;;;;;;;2.20;1.37;;;2.70;1.00;;;;;;6075590;23;20427;-80
2022/12/04 06:12:24;;;;;;;1.17;0.83;;;2.60;1.00;;;;;;6076996;23;20408;-79
2022/12/04 06:14:52;;;;;;;3.47;2.10;;;2.60;1.00;;;;;;6076596;23;20916;-79
2022/12/04 06:17:20;;;;;;;2.47;0.90;;;2.60;1.00;;;;;;6077577;23;20450;-79
2022/12/04 06:19:48;;;;;;;4.43;1.70;;;2.60;1.00;;;;;;6076616;23;20790;-80
2022/12/04 06:22:16;;;;;;;7.93;2.57;;;2.60;1.00;;;;;;6077535;23;20416;-80
2022/12/04 06:24:44;;;;;;;0.93;0.83;;;2.60;1.00;;;;;;6076877;23;20419;-79
2022/12/04 06:27:12;;;;;;;3.43;2.23;;;2.70;1.00;;;;;;6078335;23;20420;-80
2022/12/04 06:29:57;;;;;;;5.17;3.60;;;2.60;1.00;;;;;;6077534;23;20794;-79
2022/12/04 06:32:25;;;;;;;1.33;0.40;;;2.70;1.00;;;;;;6089433;23;20420;-79
2022/12/04 06:34:54;;;;;;;3.33;3.10;;;2.60;1.00;;;;;;6088513;23;20416;-79
2022/12/04 06:37:24;;;;;;;1.80;1.70;;;2.60;1.00;;;;;;6087785;23;20457;-79
2022/12/04 06:39:52;;;;;;;0.50;0.10;;;2.60;1.00;;;;;;6088269;23;20526;-80
2022/12/04 06:42:20;;;;;;;2.73;2.50;;;2.60;1.00;;;;;;6085555;23;20439;-78
2022/12/04 06:44:49;;;;;;;7.50;1.80;;;2.60;1.00;;;;;;6075702;23;20412;-79
2022/12/04 06:47:19;;;;;;;1.30;1.10;;;2.60;1.00;;;;;;6076601;23;20462;-79
2022/12/04 06:49:49;;;;;;;0.53;0.30;;;2.60;1.00;;;;;;6078240;23;20491;-80
2022/12/04 06:52:18;;;;;;;1.73;1.50;;;2.60;1.00;;;;;;6081698;23;20422;-79
2022/12/04 06:54:46;;;;;;;1.40;1.13;;;2.60;1.00;;;;;;6088347;23;20384;-78
2022/12/04 06:57:14;;;;;;;3.60;3.30;;;2.60;1.00;;;;;;6089099;23;20447;-77
2022/12/04 06:59:42;;;;;;;0.50;0.10;;;2.60;1.00;;;;;;6088025;23;20410;-78
2022/12/04 07:02:10;;;;;;;8.47;3.77;;;2.60;1.00;;;;;;6088233;23;20410;-80
2022/12/04 07:04:39;;;;;;;17.10;15.47;;;2.60;1.00;;;;;;6085799;23;20517;-80
2022/12/04 07:07:08;;;;;;;0.60;0.53;;;2.50;1.00;;;;;;6080397;23;20844;-80
2022/12/04 07:09:37;;;;;;;0.60;0.40;;;2.50;1.00;;;;;;6077790;23;20406;-79
2022/12/04 07:12:05;;;;;;;6.10;5.70;;;2.50;1.00;;;;;;6075722;23;20451;-81
2022/12/04 07:14:33;;;;;;;0.50;0.20;;;;;;;;;;6078301;23;20396;-80
2022/12/04 07:17:01;;;;;;;5.97;3.17;;;2.60;1.00;;;;;;6078038;23;20451;-80
2022/12/04 07:19:29;;;;;;;1.07;0.97;;;2.50;1.00;;;;;;6078916;23;20420;-79
2022/12/04 07:21:58;;;;;;;1.60;1.50;;;2.50;1.00;;;;;;6083907;23;20411;-80
2022/12/04 07:24:26;;;;;;;1.87;0.80;;;2.60;1.00;;;;;;6079806;23;20407;-79
2022/12/04 07:26:54;;;;;;;0.50;0.10;;;;;;;;;;6082637;23;20442;-79
2022/12/04 07:29:22;;;;;;;1.93;1.83;;;2.50;1.00;;;;;;6080242;23;20442;-79
2022/12/04 07:31:50;;;;;;;3.10;2.90;;;2.50;1.00;;;;;;6084151;23;20416;-80
2022/12/04 07:34:18;;;;;;;0.50;0.30;;;;;;;;;;6083852;23;20908;-79
2022/12/04 07:36:46;;;;;;;0.70;0.50;;;2.50;1.00;;;;;;6077288;23;20426;-80
2022/12/04 07:39:15;;;;;;;5.43;3.00;;;2.50;1.00;;;;;;6076249;23;20448;-79
2022/12/04 07:41:44;;;;;;;1.70;1.07;;;2.50;1.00;;;;;;6078328;23;20420;-80
2022/12/04 07:44:11;;;;;;;1.60;1.10;;;2.60;1.00;;;;;;6079751;23;20411;-80
2022/12/04 07:46:39;;;;;;;1.73;1.50;;;2.60;1.00;;;;;;6082692;23;20523;-78
2022/12/04 07:49:11;;;;;;;0.50;0.10;;;2.60;1.00;;;;;;6086090;23;20415;-78
2022/12/04 07:51:39;;;;;;;0.80;0.80;;;2.60;1.00;;;;;;6082872;23;20451;-80
2022/12/04 07:54:08;;;;;;;1.47;0.83;;;2.60;1.00;;;;;;6081902;23;20396;-80
2022/12/04 07:56:37;;;;;;;1.77;0.37;;;2.60;1.00;;;;;;6083598;23;20423;-78
2022/12/04 07:59:05;;;;;;;0.50;0.10;;;2.60;1.00;;;;;;6087094;23;20510;-79
2022/12/04 08:01:33;;;;;;;1.43;0.93;;;2.60;1.00;;;;;;6088902;23;20399;-79
2022/12/04 08:04:03;;;;;;;0.73;0.73;;;2.60;1.00;;;;;;6087649;23;20400;-79
2022/12/04 08:06:33;;;;;;;1.07;0.87;;;2.60;1.00;;;;;;6084922;23;20463;-79
2022/12/04 08:09:01;;;;;;;0.70;0.40;;;2.60;1.00;;;;;;6086375;23;20396;-80
2022/12/04 08:11:38;;;;;;;3.87;3.57;;;2.70;1.00;;;;;;6087485;23;20380;-79
2022/12/04 08:14:07;;;;;;;0.50;0.10;;;2.70;1.00;;;;;;6090187;23;20396;-79
2022/12/04 08:16:35;;;;;;;0.83;0.63;;;2.70;1.00;;;;;;6089008;23;20421;-80
2022/12/04 08:19:04;;;;;;;7.90;2.53;;;2.70;1.00;;;;;;6091439;23;20464;-79
2022/12/04 08:21:33;;;;;;;2.23;1.87;;;2.70;1.00;;;;;;6091839;23;20407;-79
2022/12/04 08:24:01;;;;;;;3.10;3.00;;;2.70;1.00;;;;;;6088664;23;20481;-79
2022/12/04 08:26:32;;;;;;;13.73;5.00;;;2.70;1.00;;;;;;6088609;23;20427;-79
2022/12/04 08:29:02;;;;;;;2.10;1.10;;;2.70;1.00;;;;;;6086239;23;20467;-78
2022/12/04 08:31:32;;;;;;;6.83;2.77;;;2.80;1.00;;;;;;6080672;23;20897;-79
2022/12/04 08:34:03;;;;;;;0.50;0.20;;;2.70;1.00;;;;;;6075465;23;20400;-80
2022/12/04 08:36:32;;;;;;;0.50;0.10;;;2.80;1.00;;;;;;6075132;23;20456;-80
2022/12/04 08:38:59;;;;;;;0.50;0.10;;;2.80;1.00;;;;;;6074546;23;20550;-79
2022/12/04 08:41:27;;;;;;;0.50;0.10;;;2.80;1.00;;;;;;6073041;23;20403;-79
2022/12/04 08:43:56;;;;;;;1.70;1.60;;;2.80;1.00;;;;;;6082710;23;20475;-80
2022/12/04 08:46:27;;;;;;;1.83;1.07;;;2.80;1.00;;;;;;6094284;23;20435;-79
2022/12/04 08:48:56;;;;;;;0.50;0.10;;;2.80;1.00;;;;;;6089428;23;20423;-79
2022/12/04 08:51:26;;;;;;;0.50;0.10;;;2.80;1.00;;;;;;6076009;23;20448;-79
2022/12/04 08:53:55;;;;;;;0.77;0.77;;;2.80;1.00;;;;;;6081941;23;20419;-79
2022/12/04 08:56:24;;;;;;;0.50;0.30;;;2.80;1.00;;;;;;6084079;23;20449;-78
2022/12/04 08:58:52;;;;;;;5.13;2.53;;;2.80;1.00;;;;;;6082702;23;20443;-78
2022/12/04 09:01:20;;;;;;;1.30;0.93;;;2.80;1.00;;;;;;6073199;23;20407;-78
2022/12/04 09:03:49;;;;;;;2.70;2.10;;;2.80;1.00;;;;;;6074434;23;20419;-79
2022/12/04 09:06:18;;;;;;;2.50;1.90;;;2.80;1.00;;;;;;6075516;23;20420;-77
2022/12/04 09:08:46;;;;;;;0.60;0.20;;;2.80;1.00;;;;;;6075641;23;20420;-80
2022/12/04 09:11:16;;;;;;;0.50;0.10;;;2.80;1.00;;;;;;6076140;23;20423;-79
2022/12/04 09:13:45;;;;;;;1.00;0.53;;;2.90;1.00;;;;;;6072813;23;20408;-78
2022/12/04 09:16:15;;;;;;;0.73;0.63;;;2.90;1.00;;;;;;6073805;23;20447;-78
2022/12/04 09:18:44;;;;;;;0.50;0.30;;;2.90;1.00;;;;;;6071695;23;20482;-78
2022/12/04 09:21:14;;;;;;;0.83;0.57;;;2.90;1.00;;;;;;6072865;23;20420;-78
2022/12/04 09:23:44;;;;;;;0.50;0.20;;;2.90;1.00;;;;;;6073215;23;20418;-79
2022/12/04 09:26:20;;;;;;;0.50;0.10;;;2.90;1.00;;;;;;6073054;23;20430;-78
2022/12/04 09:28:49;;;;;;;3.13;1.17;;;3.00;1.00;;;;;;6072250;23;20787;-79
2022/12/04 09:31:18;;;;;;;1.27;0.73;;;3.00;1.00;;;;;;6070759;23;20423;-78
2022/12/04 09:33:46;;;;;;;0.50;0.10;;;3.00;1.00;;;;;;6070478;23;20514;-78
2022/12/04 09:36:16;;;;;;;0.50;0.10;;;3.00;1.00;;;;;;6074117;23;20443;-79
2022/12/04 09:38:45;;;;;;;1.80;1.70;;;3.00;1.00;;;;;;6072230;23;20435;-79
2022/12/04 09:41:29;;;;;;;24.53;5.80;;;3.00;1.00;;;;;;6074940;23;20407;-79
2022/12/04 09:44:00;;;;;;;0.50;0.10;;;3.10;1.00;;;;;;6073185;23;20425;-79
2022/12/04 09:46:35;;;;;;;0.50;0.20;;;3.10;1.00;;;;;;6073388;23;20471;-79
2022/12/04 09:49:20;;;;;;;0.50;0.10;;;3.10;1.00;;;;;;6072878;23;20387;-79
2022/12/04 09:51:52;;;;;;;0.50;0.17;;;3.20;1.00;;;;;;6072443;23;20420;-79
2022/12/04 09:54:24;;;;;;;3.63;2.37;;;3.20;1.00;;;;;;6073182;23;20404;-79
2022/12/04 09:56:55;;;;;;;0.97;0.93;;;3.20;1.00;;;;;;6070796;23;20443;-80
2022/12/04 09:59:26;;;;;;;1.67;1.57;;;3.30;1.00;;;;;;6075123;23;20459;-78
2022/12/04 10:02:00;;;;;;;0.50;0.10;;;3.20;1.00;;;;;;6072398;23;20756;-79
2022/12/04 10:04:28;;;;;;;8.13;1.80;;;3.30;1.00;;;;;;6074567;23;20416;-79
2022/12/04 10:07:04;;;;;;;1.70;1.60;;;3.40;1.00;;;;;;6073585;23;20420;-79
2022/12/04 10:09:39;;;;;;;1.53;0.77;;;1.50;1.00;;;;;;6074601;23;20403;-79
2022/12/04 10:12:22;;;;;;;0.60;0.50;;;3.30;1.00;;;;;;6074138;23;20395;-79
2022/12/04 10:15:00;;;;;;;1.53;0.77;;;3.30;1.00;;;;;;6075255;23;20404;-80
2022/12/04 10:17:52;;;;;;;1.33;0.70;;;3.30;1.00;;;;;;6073566;23;20447;-79
2022/12/04 10:20:38;;;;;;;7.20;3.40;;;3.40;1.00;;;;;;6074758;23;20450;-79
2022/12/04 10:23:19;;;;;;;0.50;0.20;;;3.40;1.00;;;;;;6073539;23;20518;-79
2022/12/04 10:25:49;;;;;;;0.87;0.73;;;3.60;1.00;;;;;;6075280;23;20407;-79
2022/12/04 10:28:23;;;;;;;1.80;1.30;;;3.40;1.00;;;;;;6076313;23;20728;-80
2022/12/04 10:30:53;;;;;;;0.70;0.50;;;3.40;1.00;;;;;;6076377;23;20408;-79
2022/12/04 10:33:28;;;;;;;1.93;0.63;;;3.40;1.00;;;;;;6076792;23;20730;-79
2022/12/04 10:35:56;;;;;;;4.27;4.00;;;;;;;;;;6076514;23;20912;-80
2022/12/04 10:38:35;;;;;;;12.03;2.00;;;3.50;1.00;;;;;;6078174;23;20419;-79
2022/12/04 10:41:08;;;;;;;3.63;2.63;;;3.50;1.00;;;;;;6077956;23;20410;-79
2022/12/04 10:43:44;;;;;;;6.20;2.03;;;3.50;1.00;;;;;;6080631;23;20419;-79
2022/12/04 10:46:15;;;;;;;10.30;4.33;;;3.50;1.00;;;;;;6084469;23;20463;-79
2022/12/04 10:48:46;;;;;;;1.17;0.43;;;3.50;1.00;;;;;;6081266;23;20515;-79
2022/12/04 10:51:16;;;;;;;0.57;0.27;;;3.40;1.00;;;;;;6081699;23;20416;-79
2022/12/04 10:53:48;;;;;;;3.70;3.50;;;3.50;1.00;;;;;;6081635;23;20407;-79
2022/12/04 10:56:19;;;;;;;1.07;0.57;;;3.50;1.00;;;;;;6086769;23;20443;-79
2022/12/04 10:58:59;;;;;;;2.30;1.70;;;3.50;1.00;;;;;;6083437;23;20404;-79
2022/12/04 11:01:28;;;;;;;0.50;0.10;;;3.50;1.00;;;;;;6085921;23;20419;-79
2022/12/04 11:04:02;;;;;;;0.50;0.17;;;3.50;1.00;;;;;;6081242;23;20440;-79
2022/12/04 11:06:31;;;;;;;1.00;0.30;;;3.60;1.00;;;;;;6078098;23;20432;-79
2022/12/04 11:09:02;;;;;;;3.23;1.97;;;3.60;1.00;;;;;;6077976;23;20423;-79
2022/12/04 11:11:33;;;;;;;0.50;0.10;;;3.60;1.00;;;;;;6076154;23;20408;-79
2022/12/04 11:14:07;;;;;;;0.70;0.50;;;3.60;1.00;;;;;;6075164;23;20845;-80
2022/12/04 11:16:37;;;;;;;0.87;0.87;;;;;;;;;;6072229;23;20427;-77
2022/12/04 11:19:20;;;;;;;1.60;0.87;;;3.60;1.00;;;;;;6068693;23;20428;-78
2022/12/04 11:21:49;;;;;;;20.03;18.27;;;3.60;1.00;;;;;;6068667;23;20423;-76
2022/12/04 11:24:23;;;;;;;0.50;0.20;;;3.60;1.00;;;;;;6068252;23;20415;-76
2022/12/04 11:26:52;;;;;;;0.50;0.10;;;3.60;1.00;;;;;;6070331;23;20434;-77
2022/12/04 11:29:26;;;;;;;6.03;2.30;;;3.70;1.00;;;;;;6070600;23;20419;-78
2022/12/04 11:31:56;;;;;;;0.60;0.30;;;3.70;1.00;;;;;;6070642;23;20713;-77
2022/12/04 11:34:35;;;;;;;0.60;0.50;;;3.70;1.00;;;;;;6070797;23;20394;-76
2022/12/04 11:37:03;;;;;;;0.60;0.30;;;3.70;1.00;;;;;;6070313;23;20428;-76
2022/12/04 11:39:36;;;;;;;2.07;1.97;;;3.70;1.00;;;;;;6069388;23;20490;-77
2022/12/04 11:42:15;;;;;;;0.50;0.20;;;3.70;1.00;;;;;;6069732;23;20423;-76
2022/12/04 11:44:51;;;;;;;0.50;0.10;;;3.70;1.00;;;;;;6070009;23;20411;-76
2022/12/04 11:47:21;;;;;;;3.23;1.33;;;3.70;1.00;;;;;;6070037;23;21015;-75
2022/12/04 11:50:04;;;;;;;0.80;0.50;;;3.70;1.00;;;;;;6070254;23;20428;-75
2022/12/04 11:52:45;;;;;;;3.77;3.43;;;3.70;1.00;;;;;;6070514;23;20441;-75
2022/12/04 11:55:25;;;;;;;1.83;0.40;;;3.70;1.00;;;;;;6072460;23;20471;-75
2022/12/04 11:58:18;;;;;;;7.00;2.53;;;3.80;1.00;;;;;;6076443;23;20434;-76
2022/12/04 12:01:05;;;;;;;1.63;1.53;;;3.80;1.00;;;;;;6070973;23;20444;-77
2022/12/04 12:03:40;;;;;;;9.87;2.60;;;3.80;1.00;;;;;;6069707;23;20450;-74
2022/12/04 12:06:25;;;;;;;1.73;0.40;;;3.80;1.00;;;;;;6070349;23;20411;-76
2022/12/04 12:09:15;;;;;;;0.50;0.30;;;3.80;1.00;;;;;;6070666;23;20387;-75
2022/12/04 12:11:53;;;;;;;5.20;3.23;;;3.70;1.00;;;;;;6069762;23;20913;-76
2022/12/04 12:14:32;;;;;;;0.50;0.10;;;3.80;1.00;;;;;;6069450;23;20466;-76
2022/12/04 12:17:11;;;;;;;0.50;0.10;;;3.80;1.00;;;;;;6071024;23;20822;-76
2022/12/04 12:20:05;;;;;;;0.50;0.27;;;3.90;1.00;;;;;;6076184;23;20447;-76
2022/12/04 12:22:56;;;;;;;0.50;0.10;;;3.90;1.00;;;;;;6069695;23;20404;-75
2022/12/04 12:25:29;;;;;;;1.37;1.17;;;3.90;1.00;;;;;;6067660;23;20416;-76
2022/12/04 12:28:13;;;;;;;1.33;0.83;;;3.90;1.00;;;;;;6069362;23;20464;-75
2022/12/04 12:30:53;;;;;;;0.50;0.10;;;3.90;1.00;;;;;;6069539;23;20831;-73
2022/12/04 12:33:24;;;;;;;2.70;2.27;;;3.90;1.00;;;;;;6068369;23;20778;-76
2022/12/04 12:35:59;;;;;;;2.10;1.40;;;4.00;1.00;;;;;;6068596;23;20388;-76
2022/12/04 12:38:33;;;;;;;0.50;0.10;;;4.00;1.00;;;;;;6068410;23;20443;-77
2022/12/04 12:41:06;;;;;;;15.03;3.00;;;4.00;1.00;;;;;;6069371;23;20946;-76
2022/12/04 12:43:38;;;;;;;0.50;0.20;;;4.00;1.00;;;;;;6069174;23;20473;-76
2022/12/04 12:46:11;;;;;;;0.60;0.40;;;4.00;1.00;;;;;;6069153;23;20396;-76
2022/12/04 12:48:45;;;;;;;0.93;0.93;;;4.00;1.00;;;;;;6069572;23;20697;-77
2022/12/04 12:51:26;;;;;;;2.60;2.40;;;4.00;1.00;;;;;;6071556;23;20420;-76
2022/12/04 12:54:09;;;;;;;2.40;1.50;;;4.00;1.00;;;;;;6069568;23;20408;-77
2022/12/04 12:56:41;;;;;;;0.60;0.53;;;4.00;1.00;;;;;;6069352;23;20439;-77
2022/12/04 12:59:20;;;;;;;4.80;3.47;;;4.00;1.00;;;;;;6069890;23;20392;-77
2022/12/04 13:01:53;;;;;;;1.60;0.40;;;4.00;1.00;;;;;;6069620;23;20979;-77
2022/12/04 13:04:33;;;;;;;3.43;3.10;;;4.00;1.00;;;;;;6068607;23;20928;-77
2022/12/04 13:07:10;;;;;;;1.00;0.77;;;4.00;1.00;;;;;;6068901;23;20456;-77
2022/12/04 13:09:45;;;;;;;7.43;7.03;;;4.00;1.00;;;;;;6073803;23;20463;-77
2022/12/04 13:12:16;;;;;;;0.50;0.10;;;4.00;1.00;;;;;;6078081;23;20414;-77
2022/12/04 13:14:46;;;;;;;1.63;1.53;;;3.90;1.00;;;;;;6075351;23;20414;-77
2022/12/04 13:17:31;;;;;;;0.60;0.40;;;3.90;1.00;;;;;;6075493;23;20435;-75
2022/12/04 13:20:01;;;;;;;6.93;3.20;;;3.90;1.00;;;;;;6074977;23;20400;-78
2022/12/04 13:22:44;;;;;;;13.50;5.60;;;4.00;1.00;;;;;;6073843;23;20400;-78
2022/12/04 13:25:28;;;;;;;4.60;4.27;;;4.00;1.00;;;;;;6069672;23;20840;-76
2022/12/04 13:28:09;;;;;;;1.63;1.43;;;4.00;1.00;;;;;;6068921;23;20441;-75
2022/12/04 13:30:46;;;;;;;2.87;0.77;;;4.00;1.00;;;;;;6069555;23;20412;-76
2022/12/04 13:33:38;;;;;;;0.50;0.10;;;4.00;1.00;;;;;;6069143;23;20725;-76
2022/12/04 13:36:26;;;;;;;12.60;5.77;;;4.00;1.00;;;;;;6068193;23;20391;-76
2022/12/04 13:39:20;;;;;;;0.70;0.40;;;4.00;1.00;;;;;;6040556;23;20419;-77
2022/12/04 13:42:05;;;;;;;0.87;0.87;;;4.00;1.00;;;;;;6071364;23;20534;-76
2022/12/04 13:44:35;;;;;;;11.43;1.60;;;3.90;1.00;;;;;;6069885;23;20397;-76
2022/12/04 13:47:08;;;;;;;0.60;0.60;;;3.90;1.00;;;;;;6071986;23;20435;-76
2022/12/04 13:49:40;;;;;;;0.50;0.20;;;3.90;1.00;;;;;;6069388;23;20424;-77
2022/12/04 13:52:22;;;;;;;2.97;2.73;;;3.90;1.00;;;;;;6070494;23;20412;-76
2022/12/04 13:54:57;;;;;;;1.47;0.70;;;3.90;1.00;;;;;;6070737;23;20772;-78
2022/12/04 13:57:27;;;;;;;3.83;2.60;;;3.90;1.00;;;;;;6070262;23;20427;-77
2022/12/04 14:00:11;;;;;;;4.07;3.73;;;3.90;1.00;;;;;;6073096;23;20491;-76
2022/12/04 14:02:49;;;;;;;0.83;0.70;;;3.80;1.00;;;;;;6070418;23;20980;-77
2022/12/04 14:05:27;;;;;;;0.97;0.93;;;3.80;1.00;;;;;;6069499;23;20387;-76
2022/12/04 14:08:04;;;;;;;0.50;0.10;;;3.90;1.00;;;;;;6069394;23;20573;-76
2022/12/04 14:10:38;;;;;;;21.33;17.13;;;3.90;1.00;;;;;;6068307;23;20894;-76
2022/12/04 14:13:16;;;;;;;1.67;1.50;;;3.90;1.00;;;;;;6068798;23;20412;-75
2022/12/04 14:15:44;;;;;;;4.00;3.43;;;3.90;1.00;;;;;;6068617;23;20380;-77
2022/12/04 14:18:26;;;;;;;0.60;0.47;;;3.90;1.00;;;;;;6068655;23;20817;-75
2022/12/04 14:20:59;;;;;;;0.50;0.10;;;3.90;1.00;;;;;;6068752;23;20439;-76
2022/12/04 14:23:34;;;;;;;4.40;2.53;;;3.90;1.00;;;;;;6069879;23;20459;-75
2022/12/04 14:26:04;;;;;;;0.50;0.30;;;3.90;1.00;;;;;;6070387;23;20411;-75
2022/12/04 14:28:41;;;;;;;0.60;0.40;;;3.90;1.00;;;;;;6070554;23;20488;-76
2022/12/04 14:31:30;;;;;;;0.70;0.40;;;3.90;1.00;;;;;;6070787;23;20403;-75
2022/12/04 14:34:03;;;;;;;0.60;0.50;;;3.80;1.00;;;;;;6070488;23;20388;-75
2022/12/04 14:36:42;;;;;;;0.50;0.17;;;3.80;1.00;;;;;;6070095;23;20487;-77
2022/12/04 14:39:17;;;;;;;0.50;0.20;;;3.80;1.00;;;;;;6070198;23;20445;-77
2022/12/04 14:41:45;;;;;;;2.00;1.40;;;3.80;1.00;;;;;;6071174;23;20974;-77
2022/12/04 14:44:25;;;;;;;1.53;1.20;;;3.80;1.00;;;;;;6068268;23;20408;-76
2022/12/04 14:46:57;;;;;;;0.50;0.20;;;3.80;1.00;;;;;;6066284;23;20956;-75
2022/12/04 14:49:44;;;;;;;0.60;0.37;;;3.80;1.00;;;;;;6068228;23;20411;-75
2022/12/04 14:52:18;;;;;;;0.50;0.10;;;3.90;1.00;;;;;;6068664;23;20478;-75
2022/12/04 14:54:56;;;;;;;0.50;0.10;;;3.90;1.00;;;;;;6068045;23;20889;-76
2022/12/04 14:57:46;;;;;;;1.03;0.57;;;3.90;1.00;;;;;;6069041;23;20435;-75
2022/12/04 15:00:19;;;;;;;0.80;0.63;;;3.90;1.00;;;;;;6068808;23;20398;-76
2022/12/04 15:02:53;;;;;;;3.23;1.77;;;3.90;1.00;;;;;;6068027;23;20959;-75
2022/12/04 15:05:25;;;;;;;0.50;0.20;;;4.00;1.00;;;;;;6068253;23;20403;-76
2022/12/04 15:07:57;;;;;;;0.60;0.53;;;4.00;1.00;;;;;;6068922;23;20428;-76
2022/12/04 15:13:15;;;;;;;2.97;2.67;;;3.90;1.00;;;;;;6067590;23;20447;-76
2022/12/04 15:15:48;;;;;;;1.20;0.93;;;3.90;1.00;;;;;;6068224;23;20415;-77
2022/12/04 15:18:17;;;;;;;2.73;2.53;;;3.90;1.00;;;;;;6068712;23;20436;-78
2022/12/04 15:20:57;;;;;;;0.50;0.10;;;3.90;1.00;;;;;;6068402;23;20420;-77
2022/12/04 15:23:28;;;;;;;0.50;0.10;;;4.00;1.00;;;;;;6068374;23;20415;-78
2022/12/04 15:25:58;;;;;;;1.97;0.47;;;4.00;1.00;;;;;;6070526;23;20411;-77
2022/12/04 15:28:30;;;;;;;0.50;0.17;;;4.00;1.00;;;;;;6068146;23;20490;-75
2022/12/04 15:31:01;;;;;;;0.60;0.47;;;4.00;1.00;;;;;;6069020;23;20475;-76
2022/12/04 15:33:35;;;;;;;0.50;0.10;;;4.00;1.00;;;;;;6068349;23;20419;-78
2022/12/04 15:36:08;;;;;;;0.50;0.10;;;4.00;1.00;;;;;;6068353;23;20392;-76
2022/12/04 15:38:36;;;;;;;0.50;0.10;;;4.00;1.00;;;;;;6068366;23;20408;-76
2022/12/04 15:41:04;;;;;;;1.17;1.07;;;4.00;1.00;;;;;;6068373;23;20407;-75
2022/12/04 15:43:39;;;;;;;0.50;0.10;;;4.00;1.00;;;;;;6068191;23;20411;-75
2022/12/04 15:46:12;;;;;;;0.50;0.10;;;4.00;1.00;;;;;;6067691;23;20411;-78
2022/12/04 15:48:42;;;;;;;0.50;0.10;;;4.00;1.00;;;;;;6068791;23;20392;-77
2022/12/04 15:51:18;;;;;;;0.90;0.90;;;4.00;1.00;;;;;;6068004;23;20404;-75
2022/12/04 15:53:47;;;;;;;0.73;0.73;;;4.00;1.00;;;;;;6068316;23;20487;-75
2022/12/04 15:56:18;;;;;;;1.47;0.40;;;4.00;1.00;;;;;;6068313;23;20408;-76
2022/12/04 15:58:55;;;;;;;1.03;0.90;;;4.00;1.00;;;;;;6067652;23;20400;-76
2022/12/04 16:01:23;;;;;;;0.50;0.20;;;4.00;1.00;;;;;;6067985;23;20460;-75
2022/12/04 16:03:53;;;;;;;1.40;1.10;;;4.00;1.00;;;;;;6067528;23;20439;-76
2022/12/04 16:06:23;;;;;;;5.00;2.43;;;4.00;1.00;;;;;;6067540;23;20423;-77
2022/12/04 16:08:53;;;;;;;1.07;0.50;;;4.00;1.00;;;;;;6068337;23;20417;-77
2022/12/04 16:11:31;;;;;;;3.60;0.97;;;4.00;1.00;;;;;;6068005;23;20411;-75
2022/12/04 16:14:06;;;;;;;2.23;1.53;;;4.00;1.00;;;;;;6069776;23;20418;-77
2022/12/04 16:16:35;;;;;;;1.00;0.30;;;4.00;1.00;;;;;;6069592;23;20498;-77
2022/12/04 16:19:08;;;;;;;0.50;0.10;;;4.00;1.00;;;;;;6069907;23;20408;-74
2022/12/04 16:21:37;;;;;;;12.93;11.87;;;4.00;1.00;;;;;;6069685;23;20438;-77
2022/12/04 16:24:07;;;;;;;0.50;0.10;;;4.00;1.00;;;;;;6070261;23;20414;-75
2022/12/04 16:26:34;;;;;;;1.00;0.77;;;4.00;1.00;;;;;;6070043;23;20424;-76
2022/12/04 16:29:02;;;;;;;1.03;0.83;;;4.00;1.00;;;;;;6070774;23;20407;-76
2022/12/04 16:31:30;;;;;;;1.40;1.30;;;4.00;1.00;;;;;;6069716;23;20411;-77
2022/12/04 16:33:58;;;;;;;21.70;20.10;;;4.00;1.00;;;;;;6069636;23;20408;-76
2022/12/04 16:36:26;;;;;;;1.60;1.50;;;4.00;1.00;;;;;;6069669;23;20462;-76
2022/12/04 16:38:55;;;;;;;0.50;0.23;;;4.00;1.00;;;;;;6069540;23;20415;-77
2022/12/04 16:41:23;;;;;;;0.60;0.27;;;4.00;1.00;;;;;;6069915;23;20456;-76
2022/12/04 16:43:54;;;;;;;0.50;0.10;;;4.00;1.00;;;;;;6069198;23;20500;-76
2022/12/04 16:46:24;;;;;;;1.60;1.17;;;4.00;1.00;;;;;;6068454;23;20408;-76
2022/12/04 16:48:52;;;;;;;0.50;0.10;;;4.00;1.00;;;;;;6067918;23;20396;-78
2022/12/04 16:51:21;;;;;;;0.50;0.20;;;4.00;1.00;;;;;;6069677;23;20414;-78
2022/12/04 16:53:51;;;;;;;2.43;2.23;;;4.00;1.00;;;;;;6070135;23;20904;-77
2022/12/04 16:56:21;;;;;;;0.60;0.50;;;;;;;;;;6069518;23;20420;-75
2022/12/04 16:58:49;;;;;;;1.23;1.17;;;4.00;1.00;;;;;;6069392;23;20416;-76
2022/12/04 17:01:21;;;;;;;0.50;0.10;;;4.00;1.00;;;;;;6069838;23;20459;-75
2022/12/04 17:03:49;;;;;;;4.90;4.43;;;4.00;1.00;;;;;;6069051;23;20956;-76
2022/12/04 17:06:18;;;;;;;1.00;0.93;;;4.00;1.00;;;;;;6069828;23;20408;-76
2022/12/04 17:08:46;;;;;;;2.00;0.60;;;4.00;1.00;;;;;;6069684;23;20423;-77
2022/12/04 17:11:15;;;;;;;0.50;0.10;;;4.00;1.00;;;;;;6070813;23;20482;-77
2022/12/04 17:13:44;;;;;;;0.50;0.10;;;;;;;;;;6069749;23;20400;-77
2022/12/04 17:16:13;;;;;;;0.50;0.10;;;3.90;1.00;;;;;;6068685;23;20470;-77
2022/12/04 17:18:42;;;;;;;0.50;0.10;;;3.90;1.00;;;;;;6068454;23;20757;-75
2022/12/04 17:21:11;;;;;;;0.50;0.10;;;3.90;1.00;;;;;;6067882;23;20407;-78
2022/12/04 17:23:39;;;;;;;0.50;0.30;;;3.90;1.00;;;;;;6074335;23;20446;-81
2022/12/04 17:26:09;;;;;;;0.50;0.10;;;3.90;1.00;;;;;;6069807;23;20404;-79
2022/12/04 17:28:37;;;;;;;0.60;0.50;;;3.90;1.00;;;;;;6068465;23;20408;-78
2022/12/04 17:31:14;;;;;;;0.50;0.10;;;4.00;1.00;;;;;;6068454;23;20411;-77
2022/12/04 17:33:42;;;;;;;0.50;0.20;;;3.90;1.00;;;;;;6070892;23;20877;-80
2022/12/04 17:36:10;;;;;;;1.90;1.13;;;3.90;1.00;;;;;;6070455;23;20408;-79
2022/12/04 17:38:39;;;;;;;0.50;0.10;;;4.00;1.00;;;;;;6068078;23;20408;-78